Time;durP1;ratioP1;P1;durP2;ratioP2;P2;SDS_P1;SDS_P2;PMS_P1;PMS_P2;Temp;Humidity;BMP_temperature;BMP_pressure;BME280_temperature;BME280_humidity;BME280_pressure;Samples;Min_cycle;Max_cycle;Signal;HPM_P1;HPM_P2
2022/10/11 00:00:38;;;;;;;18.80;10.65;;;;;;;9.14;100.00;93087.03;5033634;28;20041;-78
2022/10/11 00:03:04;;;;;;;24.40;10.98;;;;;;;9.13;100.00;93084.66;5033720;28;20034;-79
2022/10/11 00:05:31;;;;;;;21.15;10.85;;;;;;;9.13;100.00;93085.44;5034314;28;20034;-79
2022/10/11 00:07:56;;;;;;;25.98;10.85;;;;;;;9.13;100.00;93085.44;5034243;28;20068;-79
2022/10/11 00:10:23;;;;;;;21.25;10.50;;;;;;;9.10;100.00;93075.53;5034277;28;20518;-79
2022/10/11 00:12:51;;;;;;;21.98;10.88;;;;;;;9.11;100.00;93077.09;5047686;28;20037;-79
2022/10/11 00:15:19;;;;;;;24.80;10.52;;;;;;;9.12;100.00;93085.72;5039341;28;20429;-79
2022/10/11 00:17:45;;;;;;;21.15;11.02;;;;;;;9.10;100.00;93072.91;5037457;28;20026;-79
2022/10/11 00:20:11;;;;;;;25.33;10.80;;;;;;;9.10;100.00;93080.75;5040051;28;20040;-79
2022/10/11 00:22:38;;;;;;;22.33;11.32;;;;;;;9.06;100.00;93071.88;5048127;28;20034;-79
2022/10/11 00:25:06;;;;;;;23.60;10.77;;;;;;;9.07;100.00;93081.25;5036776;28;20395;-79
2022/10/11 00:27:33;;;;;;;26.08;11.02;;;;;;;9.06;100.00;93076.31;5033044;28;20025;-79
2022/10/11 00:29:58;;;;;;;23.58;11.07;;;;;;;9.04;100.00;93076.56;5035082;28;20099;-78
2022/10/11 00:32:25;;;;;;;23.90;11.07;;;;;;;9.04;100.00;93079.19;5055755;28;20032;-79
2022/10/11 00:34:50;;;;;;;19.77;10.98;;;;;;;9.01;100.00;93073.72;5039599;28;20025;-78
2022/10/11 00:37:16;;;;;;;18.65;11.00;;;;;;;9.03;100.00;93082.03;5052387;28;20058;-79
2022/10/11 00:39:41;;;;;;;19.95;11.40;;;;;;;9.03;100.00;93075.00;5056763;28;20093;-78
2022/10/11 00:42:15;;;;;;;19.35;10.68;;;;;;;9.04;100.00;93078.41;5048154;28;20513;-78
2022/10/11 00:44:48;;;;;;;21.17;11.43;;;;;;;9.00;100.00;93069.53;5045907;28;20037;-78
2022/10/11 00:47:22;;;;;;;20.25;10.82;;;;;;;9.01;100.00;93076.31;5044146;28;20430;-79
2022/10/11 00:49:56;;;;;;;24.77;11.18;;;;;;;8.99;100.00;93071.34;5039159;28;20041;-78
2022/10/11 00:52:46;;;;;;;21.60;11.50;;;;;;;9.00;100.00;93072.13;5056521;28;20037;-78
2022/10/11 00:55:17;;;;;;;19.30;11.27;;;;;;;8.98;100.00;93074.22;5047985;28;20076;-79
2022/10/11 00:57:47;;;;;;;21.75;10.95;;;;;;;9.00;100.00;93072.13;5036225;28;20029;-78
2022/10/11 01:00:14;;;;;;;22.35;11.52;;;;;;;8.98;100.00;93075.00;5035083;28;20613;-79
2022/10/11 01:02:41;;;;;;;26.00;10.80;;;;;;;8.96;100.00;93075.28;5035833;28;20022;-78
2022/10/11 01:05:10;;;;;;;27.15;11.15;;;;;;;8.94;100.00;93072.13;5036299;28;20041;-78
2022/10/11 01:07:37;;;;;;;19.65;10.70;;;;;;;8.90;100.00;93071.09;5035510;28;20045;-79
2022/10/11 01:10:03;;;;;;;20.90;11.40;;;;;;;8.93;100.00;93069.78;5036128;28;20025;-79
2022/10/11 01:12:30;;;;;;;23.33;11.32;;;;;;;8.90;100.00;93071.09;5056122;28;20057;-78
2022/10/11 01:15:39;;;;;;;18.98;10.70;;;;;;;8.91;100.00;93080.47;5054591;28;20032;-78
2022/10/11 01:18:16;;;;;;;24.77;11.55;;;;;;;8.89;100.00;93069.53;5034301;28;20048;-78
2022/10/11 01:20:57;;;;;;;19.23;10.07;;;;;;;8.87;100.00;93070.81;5030776;28;20029;-78
2022/10/11 01:23:59;;;;;;;20.85;10.18;;;;;;;8.85;100.00;93073.72;5055229;28;20029;-78
2022/10/11 01:26:40;;;;;;;19.90;10.52;;;;;;;8.85;100.00;93068.47;5044316;28;20037;-78
2022/10/11 01:29:43;;;;;;;21.40;10.35;;;;;;;8.84;100.00;93061.69;5035252;28;20060;-78
2022/10/11 01:32:25;;;;;;;16.77;9.88;;;;;;;8.84;100.00;93061.69;5042174;28;20040;-79
2022/10/11 01:35:02;;;;;;;26.42;9.82;;;;;;;8.83;100.00;93054.91;5038702;28;20091;-79
2022/10/11 01:37:39;;;;;;;18.88;9.98;;;;;;;8.80;100.00;93054.63;5044015;28;20090;-79
2022/10/11 01:40:11;;;;;;;24.17;10.32;;;;;;;8.85;100.00;93052.00;5054318;28;20032;-78
2022/10/11 01:42:39;;;;;;;25.70;9.48;;;;;;;8.81;100.00;93053.59;5042586;28;20523;-79
2022/10/11 01:45:12;;;;;;;18.95;9.90;;;;;;;8.77;100.00;93053.31;5036074;28;20544;-79
2022/10/11 01:47:38;;;;;;;22.92;9.70;;;;;;;8.71;100.00;93046.53;5047568;28;20234;-79
2022/10/11 01:50:06;;;;;;;19.95;9.30;;;;;;;8.69;100.00;93038.97;5054723;28;20068;-79
2022/10/11 01:52:38;;;;;;;16.00;9.38;;;;;;;8.67;100.00;93046.28;5034860;28;20018;-78
2022/10/11 01:55:24;;;;;;;23.35;8.60;;;;;;;8.64;100.00;93043.41;5034324;28;20045;-79
2022/10/11 01:58:08;;;;;;;19.42;9.68;;;;;;;8.63;100.00;93049.69;5048431;28;20065;-79
2022/10/11 02:01:18;;;;;;;27.85;9.88;;;;;;;8.63;100.00;93049.69;5039765;28;20033;-79
2022/10/11 02:04:16;;;;;;;16.58;9.68;;;;;;;8.62;100.00;93053.31;5035037;28;20046;-78
2022/10/11 02:07:16;;;;;;;15.90;9.45;;;;;;;8.61;100.00;93047.31;5039950;28;20130;-78
2022/10/11 02:09:58;;;;;;;20.83;10.27;;;;;;;8.60;100.00;93042.34;5044657;28;20600;-78
2022/10/11 02:12:35;;;;;;;17.20;10.00;;;;;;;8.61;100.00;93046.53;5052700;28;20857;-79
2022/10/11 02:15:07;;;;;;;18.23;10.07;;;;;;;8.59;100.00;93048.63;5054382;28;20382;-78
2022/10/11 02:17:38;;;;;;;19.80;9.88;;;;;;;8.57;100.00;93045.50;5038099;28;20029;-78
2022/10/11 02:20:11;;;;;;;27.25;10.43;;;;;;;8.55;100.00;93049.13;5034830;28;20486;-78
2022/10/11 02:22:42;;;;;;;27.60;10.93;;;;;;;8.53;100.00;93050.44;5034572;28;20036;-78
2022/10/11 02:25:16;;;;;;;19.45;9.73;;;;;;;8.52;100.00;93041.81;5035334;28;20438;-78
2022/10/11 02:27:46;;;;;;;18.35;10.73;;;;;;;8.51;100.00;93032.44;5034402;28;20033;-78
2022/10/11 02:30:13;;;;;;;21.45;10.52;;;;;;;8.52;100.00;93028.00;5034705;28;20063;-77
2022/10/11 02:32:42;;;;;;;26.75;10.68;;;;;;;8.53;100.00;93037.38;5037805;28;20029;-78
2022/10/11 02:35:10;;;;;;;28.95;10.15;;;;;;;8.54;100.00;93021.47;5055135;28;20090;-78
2022/10/11 02:37:46;;;;;;;16.60;9.80;;;;;;;8.54;100.00;93026.69;5052897;28;20107;-78
2022/10/11 02:40:28;;;;;;;16.92;10.27;;;;;;;8.53;100.00;93021.72;5043315;28;20063;-78
2022/10/11 02:43:03;;;;;;;20.45;11.45;;;;;;;8.55;100.00;93019.63;5033509;28;20521;-78
2022/10/11 02:45:39;;;;;;;18.40;10.25;;;;;;;8.51;100.00;93016.78;5034205;28;20033;-78
2022/10/11 02:48:07;;;;;;;20.85;9.55;;;;;;;8.55;100.00;93017.03;5034373;28;20044;-78
2022/10/11 02:50:32;;;;;;;24.73;10.38;;;;;;;8.53;100.00;93019.91;5050813;28;20033;-78
2022/10/11 02:52:58;;;;;;;20.02;10.48;;;;;;;8.52;100.00;93018.34;5050942;28;20075;-78
2022/10/11 02:55:24;;;;;;;18.65;10.38;;;;;;;8.51;100.00;93016.78;5054152;28;20048;-78
2022/10/11 02:57:49;;;;;;;21.67;10.60;;;;;;;8.50;100.00;93009.97;5053723;28;20041;-77
2022/10/11 03:00:15;;;;;;;30.15;11.10;;;;;;;8.49;100.00;93016.25;5049176;28;20029;-78
2022/10/11 03:02:40;;;;;;;17.55;10.25;;;;;;;8.48;100.00;93019.13;5039272;28;20092;-78
2022/10/11 03:05:07;;;;;;;21.33;9.98;;;;;;;8.45;100.00;93011.81;5033249;28;20238;-78
2022/10/11 03:07:33;;;;;;;24.63;9.63;;;;;;;8.48;100.00;93013.91;5033789;28;20025;-78
2022/10/11 03:09:59;;;;;;;19.30;9.90;;;;;;;8.47;100.00;93015.72;5033507;28;20559;-78
2022/10/11 03:12:24;;;;;;;17.77;10.48;;;;;;;8.48;100.00;93017.28;5045431;28;20172;-78
2022/10/11 03:14:50;;;;;;;24.27;10.35;;;;;;;8.46;100.00;93018.59;5054307;28;20036;-78
2022/10/11 03:17:15;;;;;;;17.98;9.25;;;;;;;8.44;100.00;93018.84;5050366;28;20094;-78
2022/10/11 03:19:41;;;;;;;18.40;9.07;;;;;;;8.44;100.00;93021.44;5033010;28;20048;-78
2022/10/11 03:22:06;;;;;;;17.30;9.05;;;;;;;8.43;100.00;93014.69;5033559;28;20033;-78
2022/10/11 03:24:32;;;;;;;17.98;10.02;;;;;;;8.43;100.00;93013.91;5032451;28;20061;-78
2022/10/11 03:26:57;;;;;;;17.10;8.93;;;;;;;8.28;100.00;92996.38;5047491;28;20040;-78
2022/10/11 03:29:23;;;;;;;15.65;9.20;;;;;;;8.42;100.00;93018.34;5045368;28;20040;-78
2022/10/11 03:31:48;;;;;;;14.18;8.88;;;;;;;8.40;100.00;93014.38;5037470;28;20044;-78
2022/10/11 03:34:14;;;;;;;18.58;9.30;;;;;;;8.39;100.00;93011.00;5049319;28;20037;-78
2022/10/11 03:36:39;;;;;;;19.88;8.95;;;;;;;8.40;100.00;93011.75;5038221;28;20057;-78
2022/10/11 03:39:05;;;;;;;15.45;8.82;;;;;;;8.40;100.00;93014.38;5032562;28;20041;-78
2022/10/11 03:41:30;;;;;;;13.65;8.20;;;;;;;8.40;100.00;93015.22;5032185;28;20033;-78
2022/10/11 03:43:56;;;;;;;14.02;8.50;;;;;;;8.41;100.00;93016.75;5033375;28;20045;-78
2022/10/11 03:46:21;;;;;;;16.77;8.57;;;;;;;8.39;100.00;93018.03;5033542;28;20146;-78
2022/10/11 03:48:47;;;;;;;14.32;7.70;;;;;;;8.43;100.00;93017.28;5038187;28;20434;-79
2022/10/11 03:51:13;;;;;;;14.25;8.10;;;;;;;8.39;100.00;93018.81;5033014;28;20109;-78
2022/10/11 03:53:40;;;;;;;15.73;7.95;;;;;;;8.42;100.00;93023.56;5033846;28;20491;-78
2022/10/11 03:56:06;;;;;;;13.57;7.55;;;;;;;8.39;100.00;93020.66;5041910;28;20115;-78
2022/10/11 03:58:32;;;;;;;16.48;7.85;;;;;;;8.38;100.00;93026.91;5049107;28;20021;-78
2022/10/11 04:00:57;;;;;;;14.82;7.72;;;;;;;8.35;100.00;93030.81;5050733;28;20106;-78
2022/10/11 04:03:23;;;;;;;17.02;7.82;;;;;;;8.35;100.00;93028.19;5046455;28;20092;-78
2022/10/11 04:05:49;;;;;;;18.00;8.25;;;;;;;8.36;100.00;93024.56;5039815;28;20122;-77
2022/10/11 04:08:14;;;;;;;17.02;7.30;;;;;;;8.35;100.00;93028.19;5045982;28;20881;-78
2022/10/11 04:10:40;;;;;;;14.35;7.68;;;;;;;8.36;100.00;93029.00;5036671;28;20084;-78
2022/10/11 04:13:06;;;;;;;13.52;7.22;;;;;;;8.35;100.00;93022.97;5039338;28;20123;-78
2022/10/11 04:15:32;;;;;;;15.05;7.82;;;;;;;8.33;100.00;93022.44;5035312;28;20402;-77
2022/10/11 04:17:57;;;;;;;17.98;8.07;;;;;;;8.32;100.00;93028.72;5041036;28;20033;-78
2022/10/11 04:20:23;;;;;;;17.27;7.68;;;;;;;8.29;100.00;93022.19;5036169;28;20037;-78
2022/10/11 04:22:49;;;;;;;14.55;8.57;;;;;;;8.29;100.00;93029.25;5054144;28;20082;-77
2022/10/11 04:25:15;;;;;;;13.57;7.72;;;;;;;8.27;100.00;93021.66;5056295;28;20044;-78
2022/10/11 04:27:40;;;;;;;18.02;7.60;;;;;;;8.27;100.00;93024.28;5041056;28;20494;-78
2022/10/11 04:30:07;;;;;;;18.73;8.63;;;;;;;8.26;100.00;93016.69;5038098;28;20136;-78
2022/10/11 04:32:32;;;;;;;15.10;8.55;;;;;;;8.30;100.00;93030.81;5035717;28;20041;-78
2022/10/11 04:34:58;;;;;;;17.42;8.20;;;;;;;8.29;100.00;93026.63;5034877;28;20029;-78
2022/10/11 04:37:23;;;;;;;11.82;7.55;;;;;;;8.28;100.00;93025.84;5039442;28;20499;-78
2022/10/11 04:39:49;;;;;;;15.32;7.93;;;;;;;8.26;100.00;93027.13;5035473;28;20045;-78
2022/10/11 04:42:15;;;;;;;11.95;7.57;;;;;;;8.25;100.00;93018.53;5036295;28;20044;-78
2022/10/11 04:44:40;;;;;;;16.00;8.15;;;;;;;8.26;100.00;93021.91;5035942;28;20132;-78
2022/10/11 04:47:06;;;;;;;15.60;7.85;;;;;;;8.24;100.00;93018.78;5037178;28;20124;-78
2022/10/11 04:49:31;;;;;;;17.23;9.02;;;;;;;8.23;100.00;93019.84;5037120;28;20033;-78
2022/10/11 04:51:58;;;;;;;16.15;8.23;;;;;;;8.22;100.00;93021.66;5036089;28;20045;-76
2022/10/11 04:54:23;;;;;;;13.65;8.25;;;;;;;8.21;100.00;93021.91;5034596;28;20052;-77
2022/10/11 04:56:49;;;;;;;16.25;9.63;;;;;;;8.22;100.00;93024.28;5033805;28;20112;-77
2022/10/11 04:59:15;;;;;;;14.60;8.85;;;;;;;8.23;100.00;93025.06;5035903;28;20061;-77
2022/10/11 05:01:41;;;;;;;19.35;9.32;;;;;;;8.24;100.00;93026.59;5036149;28;20533;-76
2022/10/11 05:04:07;;;;;;;12.80;8.15;;;;;;;8.23;100.00;93030.28;5034925;28;20038;-76
2022/10/11 05:06:32;;;;;;;12.65;7.63;;;;;;;8.22;100.00;93023.47;5035976;28;20041;-77
2022/10/11 05:08:59;;;;;;;15.52;8.00;;;;;;;8.23;100.00;93030.28;5035029;28;20041;-76
2022/10/11 05:11:26;;;;;;;16.83;7.95;;;;;;;8.24;100.00;93032.63;5038432;28;20128;-77
2022/10/11 05:13:51;;;;;;;16.40;9.18;;;;;;;8.25;100.00;93028.97;5055226;28;20056;-77
2022/10/11 05:16:17;;;;;;;15.45;8.20;;;;;;;8.26;100.00;93027.13;5054881;28;20067;-77
2022/10/11 05:18:44;;;;;;;18.40;8.50;;;;;;;8.27;100.00;93028.72;5053700;28;20029;-77
2022/10/11 05:21:21;;;;;;;13.98;8.18;;;;;;;8.29;100.00;93030.03;5055527;28;20086;-77
2022/10/11 05:23:49;;;;;;;16.90;8.48;;;;;;;8.32;100.00;93023.50;5054829;28;20393;-77
2022/10/11 05:26:15;;;;;;;19.63;8.68;;;;;;;8.34;100.00;93030.03;5042886;28;20036;-76
2022/10/11 05:28:42;;;;;;;19.33;9.23;;;;;;;8.34;100.00;93022.19;5034288;28;20045;-77
2022/10/11 05:31:08;;;;;;;18.58;9.52;;;;;;;8.40;100.00;93028.25;5034449;28;20034;-76
2022/10/11 05:33:34;;;;;;;16.60;9.27;;;;;;;8.43;100.00;93019.91;5034521;28;20052;-76
2022/10/11 05:36:00;;;;;;;18.90;9.15;;;;;;;8.46;100.00;93031.63;5033331;28;20091;-76
2022/10/11 05:38:26;;;;;;;17.70;9.20;;;;;;;8.46;100.00;93018.59;5045317;28;20132;-76
2022/10/11 05:41:14;;;;;;;16.05;9.35;;;;;;;8.55;100.00;93022.25;5054256;28;20040;-76
2022/10/11 05:46:47;;;;;;;18.17;8.65;;;;;;;8.60;100.00;93021.47;5054556;28;20569;-76
2022/10/11 05:49:51;;;;;;;17.27;8.43;;;;;;;8.65;100.00;93027.50;5054640;28;20029;-76
2022/10/11 05:52:19;;;;;;;17.00;9.65;;;;;;;9.26;100.00;93015.44;5054935;28;20037;-77
2022/10/11 05:54:44;;;;;;;22.30;9.57;;;;;;;9.90;100.00;93021.75;5054551;28;20033;-77
2022/10/11 05:57:30;;;;;;;17.60;8.95;;;;;;;10.60;100.00;93024.28;5054526;28;20047;-77
2022/10/11 05:59:56;;;;;;;15.48;8.43;;;;;;;11.31;100.00;93028.16;5040068;28;20025;-77
2022/10/11 06:05:44;;;;;;;14.57;7.15;;;;;;;12.96;100.00;93034.81;5035080;28;20037;-77
2022/10/11 06:08:32;;;;;;;14.68;7.05;;;;;;;13.62;100.00;93040.81;5034801;28;20052;-77
2022/10/11 06:10:58;;;;;;;10.18;6.63;;;;;;;14.19;99.63;93038.69;5035008;28;20041;-77
2022/10/11 06:13:23;;;;;;;13.65;6.78;;;;;;;14.46;95.47;93042.34;5035141;28;20033;-77
2022/10/11 06:19:19;;;;;;;9.45;5.45;;;;;;;14.74;90.65;93040.44;5034644;28;20037;-77
2022/10/11 06:21:45;;;;;;;16.92;6.35;;;;;;;15.43;89.23;93042.00;5033621;28;20041;-77
2022/10/11 06:28:05;;;;;;;11.38;4.90;;;;;;;16.36;83.36;93041.91;5034329;28;20407;-77
2022/10/11 06:34:04;;;;;;;10.93;5.00;;;;;;;16.50;77.44;93041.75;5035513;28;20029;-78
2022/10/11 06:36:30;;;;;;;11.27;4.55;;;;;;;16.84;77.85;93051.63;5035232;28;20051;-77
2022/10/11 06:42:02;;;;;;;13.07;5.10;;;;;;;17.43;74.13;93050.34;5036390;28;20068;-78
2022/10/11 06:44:28;;;;;;;13.20;5.20;;;;;;;17.42;72.88;93054.84;5035524;28;20142;-78
2022/10/11 06:47:33;;;;;;;13.85;6.70;;;;;;;17.85;71.64;93059.28;5035235;28;20120;-77
2022/10/11 06:49:58;;;;;;;21.77;6.65;;;;;;;18.14;71.69;93054.34;5035645;28;20554;-77
2022/10/11 06:53:03;;;;;;;16.35;5.30;;;;;;;18.17;66.90;93061.66;5034850;28;20124;-77
2022/10/11 06:55:30;;;;;;;9.57;6.03;;;;;;;18.06;70.87;93061.25;5034783;28;20033;-77
2022/10/11 06:57:56;;;;;;;16.92;6.93;;;;;;;17.45;69.15;93066.66;5034966;28;20026;-77
2022/10/11 07:00:59;;;;;;;13.68;7.05;;;;;;;17.42;74.62;93064.66;5034688;28;20040;-77
2022/10/11 07:03:24;;;;;;;15.50;6.45;;;;;;;17.72;73.00;93075.31;5034374;28;20038;-77
2022/10/11 07:05:50;;;;;;;20.20;6.90;;;;;;;17.51;74.35;93072.59;5033276;28;20574;-77
2022/10/11 07:12:10;;;;;;;11.77;6.30;;;;;;;18.69;69.23;93075.41;5034983;28;20533;-78
2022/10/11 07:18:04;;;;;;;13.75;6.10;;;;;;;18.95;68.68;93085.06;5033808;28;20040;-77
2022/10/11 07:20:29;;;;;;;11.02;6.05;;;;;;;18.91;70.47;93084.16;5034535;28;20550;-77
2022/10/11 07:26:49;;;;;;;12.75;6.50;;;;;;;18.77;73.25;93087.06;5034367;28;20048;-77
2022/10/11 07:33:09;;;;;;;19.33;5.93;;;;;;;18.33;70.37;93085.72;5037037;28;20036;-78
2022/10/11 07:39:29;;;;;;;;;;;;;;;18.19;70.86;93088.59;5036349;28;20051;-78
2022/10/11 07:42:13;;;;;;;12.23;6.32;;;;;;;17.99;69.79;93088.22;5036632;28;19917;-79
2022/10/11 07:44:39;;;;;;;12.75;6.40;;;;;;;17.45;72.82;93093.13;5036366;28;20034;-79
2022/10/11 07:47:04;;;;;;;19.60;8.35;;;;;;;17.18;78.74;93097.69;5036289;28;20042;-79
2022/10/11 07:53:24;;;;;;;14.32;6.00;;;;;;;17.17;73.66;93106.69;5036749;28;20071;-78
2022/10/11 07:59:43;;;;;;;;;;;;;;;18.00;68.81;93100.34;5036656;28;20461;-79
2022/10/11 08:05:36;;;;;;;27.75;9.82;;;;;;;17.35;80.32;93104.06;5035724;28;20042;-78
2022/10/11 08:08:02;;;;;;;22.35;9.02;;;;;;;17.32;81.45;93102.03;5033911;28;20120;-78
2022/10/11 08:14:05;;;;;;;18.75;8.85;;;;;;;17.33;78.20;93108.88;5035487;28;20046;-78
2022/10/11 08:16:30;;;;;;;20.98;7.95;;;;;;;17.32;78.83;93102.03;5035375;28;20045;-78
2022/10/11 08:26:44;;;;;;;22.30;8.38;;;;;;;17.71;80.13;93097.63;5035319;28;20048;-78
2022/10/11 08:32:33;;;;;;;23.08;8.60;;;;;;;17.87;78.76;93107.41;5035196;28;20061;-78
2022/10/11 08:34:59;;;;;;;18.33;9.10;;;;;;;18.16;79.25;93107.78;5034983;28;20064;-78
2022/10/11 08:41:38;;;;;;;22.15;9.30;;;;;;;18.16;78.73;93105.13;5035005;28;20136;-78
2022/10/11 08:44:33;;;;;;;29.52;9.90;;;;;;;17.83;78.95;93105.69;5034378;28;20041;-78
2022/10/11 08:47:40;;;;;;;19.55;9.50;;;;;;;17.81;79.46;93110.50;5034663;28;20495;-78
2022/10/11 08:50:17;;;;;;;21.15;9.18;;;;;;;17.81;80.40;93103.38;5017488;28;20033;-78
2022/10/11 08:53:07;;;;;;;19.98;9.80;;;;;;;17.73;79.49;93100.72;5037033;28;20513;-78
2022/10/11 08:55:42;;;;;;;19.35;8.77;;;;;;;17.77;80.92;93107.72;5038521;28;20521;-78
2022/10/11 09:09:36;;;;;;;13.82;7.00;;;;;;;17.98;77.09;93097.25;5038579;28;20121;-79
2022/10/11 09:15:52;;;;;;;17.35;7.50;;;;;;;18.14;76.11;93089.56;5039034;28;20045;-78
2022/10/11 09:19:03;;;;;;;18.55;6.35;;;;;;;18.28;70.89;93098.09;5039000;28;20053;-79
2022/10/11 09:21:41;;;;;;;14.13;5.90;;;;;;;18.06;66.42;93088.50;5053832;28;20147;-78
2022/10/11 09:27:21;;;;;;;15.45;6.30;;;;;;;18.12;66.05;93093.63;5038365;28;20034;-79
2022/10/11 09:33:16;;;;;;;14.82;5.85;;;;;;;17.20;69.36;93090.22;5038019;28;20061;-78
2022/10/11 09:36:01;;;;;;;15.48;5.68;;;;;;;17.14;69.13;93096.75;5037414;28;20084;-78
2022/10/11 09:38:44;;;;;;;12.95;6.15;;;;;;;17.36;71.73;93087.88;5036846;28;20026;-79
2022/10/11 09:41:49;;;;;;;12.18;5.32;;;;;;;17.80;66.39;93085.13;5037668;28;20112;-78
2022/10/11 09:44:22;;;;;;;11.82;5.40;;;;;;;18.00;66.84;93079.16;5036578;28;20055;-77
2022/10/11 09:46:49;;;;;;;10.90;5.60;;;;;;;18.13;67.27;93081.94;5049926;28;20037;-79
2022/10/11 09:49:18;;;;;;;11.82;5.50;;;;;;;17.77;66.61;93081.25;5057696;28;20433;-78
2022/10/11 09:52:04;;;;;;;9.15;5.32;;;;;;;17.33;66.85;93087.72;5057675;28;20067;-78
2022/10/11 09:54:42;;;;;;;13.55;7.25;;;;;;;17.19;76.89;93087.88;5057314;28;20051;-80
2022/10/11 09:57:29;;;;;;;16.17;7.45;;;;;;;17.02;76.71;93093.94;5056033;28;20038;-79
2022/10/11 10:00:05;;;;;;;12.63;6.82;;;;;;;17.18;75.62;93095.03;5056367;28;20068;-80
2022/10/11 10:02:58;;;;;;;12.15;6.07;;;;;;;17.89;75.95;93077.97;5037491;28;20135;-81
2022/10/11 10:05:35;;;;;;;13.40;5.38;;;;;;;18.28;65.55;93082.19;5036970;28;20552;-80
2022/10/11 10:08:08;;;;;;;9.98;5.07;;;;;;;18.75;64.31;93075.97;5042333;28;20044;-80
2022/10/11 10:10:48;;;;;;;12.20;5.30;;;;;;;18.71;66.65;93090.97;5057820;28;20502;-80
2022/10/11 10:13:28;;;;;;;10.70;5.03;;;;;;;18.67;64.57;93090.09;5056653;28;20483;-79
2022/10/11 10:16:31;;;;;;;12.57;5.13;;;;;;;18.47;69.74;93089.72;5055938;28;20032;-80
2022/10/11 10:18:58;;;;;;;11.00;4.95;;;;;;;18.49;70.94;93089.41;5057790;28;20120;-79
2022/10/11 10:21:27;;;;;;;13.68;6.07;;;;;;;18.58;69.68;93081.41;5055294;28;20592;-80
2022/10/11 10:23:55;;;;;;;11.02;6.47;;;;;;;18.74;69.94;93085.03;5056798;28;20112;-80
2022/10/11 10:26:40;;;;;;;12.23;6.15;;;;;;;18.45;68.49;93094.56;5054990;28;20123;-80
2022/10/11 10:29:09;;;;;;;11.77;6.45;;;;;;;18.50;71.02;93091.72;5055724;28;20033;-81
2022/10/11 10:31:50;;;;;;;10.07;5.78;;;;;;;18.46;70.40;93080.22;5036503;28;20032;-80
2022/10/11 10:34:21;;;;;;;17.38;6.13;;;;;;;18.42;69.77;93089.91;5017991;28;20142;-79
2022/10/11 10:40:26;;;;;;;9.70;5.30;;;;;;;17.83;69.58;93095.09;5035988;28;20037;-80
2022/10/11 10:47:02;;;;;;;17.05;6.10;;;;;;;17.65;72.25;93094.34;5037021;28;20036;-80
2022/10/11 10:49:33;;;;;;;11.13;5.78;;;;;;;17.67;73.98;93100.91;5036661;28;20037;-80
2022/10/11 10:52:04;;;;;;;11.13;5.93;;;;;;;17.80;75.63;93093.06;5035703;28;20038;-80
2022/10/11 10:55:10;;;;;;;11.77;6.15;;;;;;;17.66;75.18;93088.75;5036723;28;20078;-80
2022/10/11 11:00:57;;;;;;;13.95;6.22;;;;;;;17.59;76.23;93085.81;5036630;28;20037;-79
2022/10/11 11:03:46;;;;;;;9.93;6.32;;;;;;;17.54;75.76;93093.13;5036513;28;20044;-79
2022/10/11 11:10:21;;;;;;;16.30;6.72;;;;;;;17.95;74.06;93092.59;5036648;28;20075;-79
2022/10/11 11:27:07;;;;;;;19.00;7.18;;;;;;;18.41;73.72;93087.56;5034750;28;20037;-79
2022/10/11 11:34:00;;;;;;;9.65;5.20;;;;;;;18.39;67.64;93084.47;5035744;28;20565;-80
2022/10/11 11:36:44;;;;;;;15.73;5.13;;;;;;;18.32;67.61;93090.25;5036016;28;20033;-80
2022/10/11 11:43:21;;;;;;;11.85;5.70;;;;;;;18.45;70.73;93083.94;5028595;28;20049;-80
2022/10/11 11:45:53;;;;;;;17.98;6.35;;;;;;;18.71;69.90;93086.47;5036311;28;20045;-79
2022/10/11 11:48:23;;;;;;;10.50;5.00;;;;;;;18.82;63.07;93086.88;5035951;28;20038;-79
2022/10/11 11:54:53;;;;;;;9.70;5.50;;;;;;;18.83;73.33;93080.47;5036297;28;20044;-79
2022/10/11 12:01:52;;;;;;;14.25;5.72;;;;;;;18.45;66.98;93089.25;5036404;28;20036;-80
2022/10/11 12:04:40;;;;;;;14.77;6.40;;;;;;;18.27;74.25;93087.78;5035379;28;20127;-79
2022/10/11 12:07:15;;;;;;;11.30;5.75;;;;;;;18.07;71.10;93092.69;5034695;28;20041;-79
2022/10/11 12:09:49;;;;;;;14.50;6.45;;;;;;;18.02;71.84;93092.09;5036463;28;20128;-79
2022/10/11 12:12:36;;;;;;;15.50;5.68;;;;;;;17.96;71.90;93088.06;5035934;28;20044;-79
2022/10/11 12:19:34;;;;;;;14.45;6.75;;;;;;;17.73;77.68;93093.56;5053750;28;20136;-79
2022/10/11 12:22:49;;;;;;;11.32;7.25;;;;;;;17.62;78.92;93093.09;5049747;28;20045;-79
2022/10/11 12:25:15;;;;;;;17.45;7.50;;;;;;;17.80;78.64;93093.84;5036179;28;20033;-79
2022/10/11 12:27:42;;;;;;;16.15;7.15;;;;;;;17.68;79.61;93093.72;5038132;28;20049;-80
2022/10/11 12:34:08;;;;;;;10.60;6.20;;;;;;;18.04;76.61;93092.56;5039475;28;20064;-79
2022/10/11 12:44:17;;;;;;;13.20;6.35;;;;;;;17.96;75.38;93088.84;5028664;28;20158;-80
2022/10/11 12:46:56;;;;;;;12.05;6.50;;;;;;;18.18;75.11;93090.47;5039580;28;20053;-80
2022/10/11 12:53:55;;;;;;;13.10;6.30;;;;;;;18.33;69.38;93097.13;5039427;28;20063;-80
2022/10/11 12:56:39;;;;;;;11.25;5.10;;;;;;;18.52;69.13;93078.91;5037758;28;20037;-79
2022/10/11 13:02:42;;;;;;;12.32;6.30;;;;;;;18.79;70.46;93082.22;5039212;28;20045;-80
2022/10/11 13:05:23;;;;;;;12.20;6.10;;;;;;;18.81;69.66;93089.88;5038506;28;20047;-80
2022/10/11 13:07:51;;;;;;;11.10;5.95;;;;;;;18.64;68.07;93086.19;5037440;28;20033;-80
2022/10/11 13:10:25;;;;;;;16.30;6.93;;;;;;;18.71;68.86;93088.31;5037777;28;20040;-79
2022/10/11 13:12:52;;;;;;;10.30;5.55;;;;;;;18.42;67.10;93087.25;5037838;28;20390;-79
2022/10/11 13:15:21;;;;;;;9.20;5.88;;;;;;;18.40;68.26;93092.09;5037133;28;20029;-79
2022/10/11 13:17:47;;;;;;;11.50;5.85;;;;;;;18.48;66.97;93079.88;5036935;28;20068;-79
2022/10/11 13:20:18;;;;;;;7.45;4.57;;;;;;;18.56;62.92;93083.59;5037367;28;20045;-80
2022/10/11 13:22:54;;;;;;;14.40;6.57;;;;;;;18.72;65.02;93084.59;5037652;28;20034;-80
2022/10/11 13:25:23;;;;;;;7.93;4.00;;;;;;;18.66;58.05;93077.91;5036186;28;20029;-80
2022/10/11 13:27:51;;;;;;;8.13;4.35;;;;;;;18.48;58.43;93075.34;5037292;28;20033;-79
2022/10/11 13:30:29;;;;;;;9.15;3.95;;;;;;;18.49;59.05;93071.63;5036517;28;20033;-80
2022/10/11 13:32:56;;;;;;;7.63;4.70;;;;;;;18.63;59.16;93078.56;5037754;28;20037;-79
2022/10/11 13:35:35;;;;;;;13.98;4.65;;;;;;;18.47;59.34;93076.47;5036872;28;20044;-79
2022/10/11 13:38:02;;;;;;;9.10;4.22;;;;;;;18.47;57.38;93071.16;5036913;28;20044;-79
2022/10/11 13:40:28;;;;;;;8.55;4.78;;;;;;;18.20;58.28;93079.56;5037404;28;20036;-79
2022/10/11 13:42:55;;;;;;;7.07;4.65;;;;;;;18.22;58.96;93078.16;5052481;28;20036;-80
2022/10/11 13:45:23;;;;;;;13.32;4.90;;;;;;;18.52;60.64;93070.97;5055888;28;20060;-80
2022/10/11 13:47:51;;;;;;;10.25;5.05;;;;;;;18.65;60.37;93068.41;5057538;28;20544;-79
2022/10/11 13:50:31;;;;;;;7.85;5.05;;;;;;;18.64;60.34;93062.34;5056418;28;20041;-79
2022/10/11 13:53:24;;;;;;;9.40;5.22;;;;;;;18.61;61.18;93065.63;5057186;28;20111;-79
2022/10/11 13:56:11;;;;;;;8.70;4.88;;;;;;;18.61;59.66;93064.84;5055990;28;20045;-79
2022/10/11 13:58:43;;;;;;;12.43;5.25;;;;;;;18.44;60.79;93060.41;5057402;28;20071;-79
2022/10/11 14:01:22;;;;;;;9.10;4.95;;;;;;;18.46;62.35;93059.03;5056091;28;20037;-80
2022/10/11 14:03:58;;;;;;;10.25;5.35;;;;;;;18.41;61.65;93066.38;5055965;28;20072;-79
2022/10/11 14:06:43;;;;;;;10.45;5.38;;;;;;;18.48;63.46;93066.63;5055975;28;20041;-79
2022/10/11 14:09:23;;;;;;;10.45;5.75;;;;;;;18.56;62.82;93063.16;5056800;28;20037;-79
2022/10/11 14:11:49;;;;;;;10.35;5.15;;;;;;;18.67;63.04;93053.72;5056252;28;20086;-80
2022/10/11 14:14:33;;;;;;;10.98;5.30;;;;;;;18.54;62.18;93065.34;5056272;28;20033;-79
2022/10/11 14:17:13;;;;;;;11.55;5.20;;;;;;;18.64;63.63;93066.84;5056066;28;20033;-79
2022/10/11 14:19:39;;;;;;;10.68;5.22;;;;;;;18.62;62.92;93056.59;5056345;28;20457;-79
2022/10/11 14:22:10;;;;;;;10.93;5.60;;;;;;;18.84;63.63;93063.47;5054854;28;20029;-79
2022/10/11 14:24:36;;;;;;;11.75;6.03;;;;;;;18.77;63.13;93065.84;5055413;28;20029;-79
2022/10/11 14:27:04;;;;;;;12.52;5.47;;;;;;;18.93;63.42;93058.09;5054229;28;20107;-79
2022/10/11 14:29:38;;;;;;;11.88;5.70;;;;;;;19.01;63.62;93061.81;5055144;28;20025;-79